Time;durP1;ratioP1;P1;durP2;ratioP2;P2;SDS_P1;SDS_P2;PMS_P1;PMS_P2;Temp;Humidity;BMP_temperature;BMP_pressure;BME280_temperature;BME280_humidity;BME280_pressure;Samples;Min_cycle;Max_cycle;Signal;HPM_P1;HPM_P2
2024/03/11 05:07:37;;;;;;;0.40;0.40;;;6.10;99.90;;;;;;4969440;23;20301;-60
2024/03/11 05:10:04;;;;;;;0.30;0.30;;;6.00;99.90;;;;;;4899952;29;20633;-61
2024/03/11 05:12:30;;;;;;;0.30;0.30;;;6.00;99.90;;;;;;4898579;29;20186;-62
2024/03/11 05:14:59;;;;;;;0.30;0.30;;;5.90;99.90;;;;;;4899644;29;20174;-61
2024/03/11 05:17:25;;;;;;;0.30;0.30;;;5.80;99.90;;;;;;4878159;29;20449;-62
2024/03/11 05:19:51;;;;;;;0.47;0.47;;;5.80;99.90;;;;;;4862482;29;20190;-61
2024/03/11 05:22:17;;;;;;;0.40;0.40;;;5.80;99.90;;;;;;4862556;29;20650;-61
2024/03/11 05:24:42;;;;;;;0.67;0.67;;;5.80;99.90;;;;;;4862221;29;20452;-61
2024/03/11 05:27:08;;;;;;;0.40;0.40;;;5.80;99.90;;;;;;4862237;29;20814;-61
2024/03/11 05:29:36;;;;;;;0.30;0.30;;;5.70;99.90;;;;;;4862443;29;20203;-61
2024/03/11 05:32:03;;;;;;;0.35;0.35;;;5.80;99.90;;;;;;4864319;29;20183;-61
2024/03/11 05:34:29;;;;;;;0.35;0.35;;;5.80;99.90;;;;;;4862051;29;20184;-63
2024/03/11 05:36:54;;;;;;;0.40;0.40;;;5.70;99.90;;;;;;4860228;29;20203;-60
2024/03/11 05:39:20;;;;;;;0.37;0.37;;;5.80;99.90;;;;;;4862389;29;20503;-61
2024/03/11 05:41:46;;;;;;;0.40;0.40;;;5.70;99.90;;;;;;4881594;29;20241;-61
2024/03/11 05:44:11;;;;;;;0.30;0.30;;;5.70;99.90;;;;;;4881156;29;20185;-60
2024/03/11 05:46:37;;;;;;;0.40;0.40;;;5.70;99.90;;;;;;4879873;29;20957;-60
2024/03/11 05:49:05;;;;;;;0.40;0.40;;;5.70;99.90;;;;;;4880593;29;20176;-61
2024/03/11 05:51:34;;;;;;;0.40;0.40;;;5.70;99.90;;;;;;4864436;29;20176;-61
2024/03/11 05:54:00;;;;;;;0.30;0.30;;;5.70;99.90;;;;;;4880444;29;20178;-61
2024/03/11 05:56:28;;;;;;;0.30;0.30;;;5.80;99.90;;;;;;4868325;29;20729;-60
2024/03/11 05:58:54;;;;;;;0.30;0.30;;;5.90;99.90;;;;;;4861696;29;20295;-61
2024/03/11 06:01:20;;;;;;;0.40;0.40;;;6.00;99.90;;;;;;4867003;29;20763;-61
2024/03/11 06:03:49;;;;;;;0.30;0.30;;;6.10;99.90;;;;;;4861094;29;20207;-61
2024/03/11 06:06:15;;;;;;;0.80;0.80;;;6.30;99.90;;;;;;4859867;29;20203;-61
2024/03/11 06:08:43;;;;;;;0.40;0.40;;;6.50;99.90;;;;;;4879213;29;20224;-62
2024/03/11 06:11:09;;;;;;;0.55;0.55;;;6.70;99.90;;;;;;4878906;29;20182;-61
2024/03/11 06:13:37;;;;;;;0.30;0.30;;;7.00;99.90;;;;;;4877498;29;20183;-62
2024/03/11 06:16:07;;;;;;;0.40;0.40;;;7.20;99.90;;;;;;4860877;29;20200;-61
2024/03/11 06:18:35;;;;;;;0.30;0.30;;;7.40;99.90;;;;;;4861133;29;20228;-63
2024/03/11 06:21:01;;;;;;;0.40;0.40;;;7.60;99.90;;;;;;4861225;29;20177;-62
2024/03/11 06:23:27;;;;;;;0.30;0.30;;;7.80;99.90;;;;;;4874983;29;20186;-61
2024/03/11 06:25:54;;;;;;;0.30;0.30;;;8.00;99.90;;;;;;4879263;29;20271;-62
2024/03/11 06:28:21;;;;;;;0.40;0.40;;;8.30;99.90;;;;;;4879450;29;20172;-62
2024/03/11 06:30:47;;;;;;;0.40;0.40;;;8.60;99.90;;;;;;4868221;29;20232;-62
2024/03/11 06:33:13;;;;;;;0.30;0.30;;;9.10;99.90;;;;;;4879051;29;20183;-61
2024/03/11 06:35:39;;;;;;;0.30;0.30;;;9.70;99.90;;;;;;4877648;29;20205;-61
2024/03/11 06:38:05;;;;;;;0.30;0.30;;;10.30;99.90;;;;;;4879475;29;20514;-68
2024/03/11 06:40:32;;;;;;;0.30;0.30;;;11.00;99.90;;;;;;4877711;29;20455;-64
2024/03/11 06:42:58;;;;;;;0.37;0.37;;;11.60;99.90;;;;;;4869251;29;20420;-62
2024/03/11 06:45:24;;;;;;;0.40;0.40;;;11.90;99.90;;;;;;4863568;29;20184;-62
2024/03/11 06:47:49;;;;;;;0.30;0.20;;;12.20;99.90;;;;;;4877194;29;20542;-62
2024/03/11 06:50:15;;;;;;;0.30;0.30;;;12.50;99.90;;;;;;4879174;29;20233;-61
2024/03/11 06:52:42;;;;;;;0.30;0.30;;;12.90;99.90;;;;;;4865680;29;20265;-60
2024/03/11 06:55:10;;;;;;;0.30;0.30;;;13.20;99.90;;;;;;4866533;29;20596;-62
2024/03/11 06:57:41;;;;;;;0.30;0.20;;;13.50;99.90;;;;;;4860867;29;20901;-60
2024/03/11 07:00:19;;;;;;;0.40;0.40;;;13.80;99.90;;;;;;4860746;29;20435;-65
2024/03/11 07:02:46;;;;;;;0.30;0.30;;;14.00;99.90;;;;;;4860637;29;20412;-62
2024/03/11 07:05:13;;;;;;;0.30;0.30;;;14.10;98.80;;;;;;4863413;29;20429;-61
2024/03/11 07:07:44;;;;;;;0.30;0.30;;;14.30;99.30;;;;;;4864050;29;20441;-61
2024/03/11 07:10:10;;;;;;;0.30;0.30;;;14.50;98.00;;;;;;4862866;29;20404;-60
2024/03/11 07:12:37;;;;;;;0.30;0.30;;;14.60;97.90;;;;;;4878441;29;20420;-62
2024/03/11 07:15:03;;;;;;;0.30;0.30;;;14.80;96.50;;;;;;4878639;29;20415;-60
2024/03/11 07:17:29;;;;;;;0.30;0.20;;;15.00;95.80;;;;;;4878711;29;21027;-60
2024/03/11 07:19:56;;;;;;;0.30;0.30;;;15.00;95.20;;;;;;4877184;29;21121;-61
2024/03/11 07:22:23;;;;;;;0.30;0.30;;;15.20;95.60;;;;;;4881521;29;20398;-60
2024/03/11 07:24:50;;;;;;;0.30;0.30;;;15.50;95.40;;;;;;4881200;29;20543;-60
2024/03/11 07:27:16;;;;;;;0.30;0.30;;;16.00;94.50;;;;;;4882772;29;20423;-60
2024/03/11 07:29:42;;;;;;;0.30;0.20;;;16.40;93.40;;;;;;4881503;29;20413;-61
2024/03/11 07:32:11;;;;;;;0.30;0.30;;;16.80;93.30;;;;;;4882782;29;20428;-61
2024/03/11 07:34:42;;;;;;;0.30;0.30;;;17.30;92.70;;;;;;4882358;29;20402;-61
2024/03/11 07:37:09;;;;;;;0.30;0.20;;;17.80;91.40;;;;;;4882441;29;20462;-59
2024/03/11 07:39:36;;;;;;;0.70;0.37;;;18.30;91.40;;;;;;4882636;29;20431;-58
2024/03/11 07:42:02;;;;;;;0.30;0.30;;;18.90;90.30;;;;;;4882781;29;20787;-59
2024/03/11 07:44:28;;;;;;;0.30;0.30;;;19.30;87.30;;;;;;4882257;29;20391;-59
2024/03/11 07:46:54;;;;;;;0.30;0.30;;;19.70;87.70;;;;;;4882225;29;20818;-61
2024/03/11 07:49:20;;;;;;;0.30;0.30;;;20.00;84.50;;;;;;4882444;29;20180;-60
2024/03/11 07:51:46;;;;;;;0.30;0.30;;;20.30;83.10;;;;;;4882523;29;20418;-60
2024/03/11 07:54:12;;;;;;;0.30;0.30;;;20.50;81.30;;;;;;4882410;29;20470;-60
2024/03/11 07:56:38;;;;;;;0.30;0.30;;;20.50;80.70;;;;;;4881966;29;20194;-60
2024/03/11 07:59:07;;;;;;;0.37;0.33;;;20.70;79.10;;;;;;4882258;29;20179;-60
2024/03/11 08:01:33;;;;;;;0.30;0.20;;;20.60;79.00;;;;;;4882291;29;20470;-60
2024/03/11 08:03:58;;;;;;;0.30;0.20;;;20.70;79.90;;;;;;4881035;29;20423;-64
2024/03/11 08:06:24;;;;;;;0.30;0.20;;;20.80;80.40;;;;;;4881778;29;20192;-61
2024/03/11 08:08:52;;;;;;;0.30;0.20;;;21.20;79.20;;;;;;4881922;29;20211;-63
2024/03/11 08:11:19;;;;;;;0.30;0.30;;;21.50;78.40;;;;;;4882105;29;20658;-64
2024/03/11 08:13:45;;;;;;;0.30;0.30;;;21.80;78.20;;;;;;4880548;29;20420;-61
2024/03/11 08:16:11;;;;;;;0.30;0.20;;;21.60;77.40;;;;;;4881823;29;20418;-60
2024/03/11 08:18:39;;;;;;;0.30;0.30;;;21.70;78.00;;;;;;4881985;29;20460;-66
2024/03/11 08:21:06;;;;;;;0.30;0.20;;;22.00;78.00;;;;;;4881947;29;20179;-61
2024/03/11 08:23:31;;;;;;;0.40;0.40;;;22.30;75.20;;;;;;4881886;29;20387;-63
2024/03/11 08:25:57;;;;;;;0.30;0.30;;;22.40;75.00;;;;;;4881357;29;20437;-61
2024/03/11 08:28:24;;;;;;;0.30;0.30;;;22.50;76.70;;;;;;4881701;29;20262;-64
2024/03/11 08:30:49;;;;;;;0.30;0.20;;;22.80;73.50;;;;;;4870273;29;20610;-62
2024/03/11 08:33:15;;;;;;;0.93;0.33;;;22.80;74.60;;;;;;4862153;29;20476;-66
2024/03/11 08:35:41;;;;;;;0.30;0.30;;;23.20;73.70;;;;;;4862860;29;20211;-63
2024/03/11 08:38:07;;;;;;;0.30;0.30;;;23.50;73.40;;;;;;4863138;29;20479;-65
2024/03/11 08:40:33;;;;;;;0.30;0.30;;;23.90;72.90;;;;;;4863234;29;20504;-61
2024/03/11 08:42:58;;;;;;;0.30;0.30;;;24.30;69.70;;;;;;4863536;29;20176;-62
2024/03/11 08:45:24;;;;;;;0.30;0.30;;;23.80;71.10;;;;;;4861537;29;20181;-60
2024/03/11 08:47:51;;;;;;;0.30;0.30;;;23.40;69.40;;;;;;4863186;29;20642;-62
2024/03/11 08:50:17;;;;;;;0.43;0.43;;;22.90;71.30;;;;;;4863054;29;20193;-63
2024/03/11 08:52:46;;;;;;;0.30;0.30;;;23.00;71.80;;;;;;4863000;29;20971;-63
2024/03/11 08:55:13;;;;;;;0.30;0.30;;;23.00;72.50;;;;;;4861387;29;20188;-61
2024/03/11 08:57:40;;;;;;;0.30;0.20;;;23.20;72.50;;;;;;4862737;29;20518;-62
2024/03/11 09:00:09;;;;;;;0.30;0.30;;;23.70;71.30;;;;;;4862929;29;20413;-63
2024/03/11 09:02:36;;;;;;;0.30;0.30;;;23.60;70.80;;;;;;4863021;29;20820;-64
2024/03/11 09:05:03;;;;;;;0.30;0.30;;;23.80;70.70;;;;;;4862348;29;20757;-64
2024/03/11 09:07:29;;;;;;;0.30;0.30;;;23.80;69.80;;;;;;4862557;29;20627;-62
2024/03/11 09:09:57;;;;;;;0.40;0.40;;;23.70;70.80;;;;;;4862879;29;20423;-62
2024/03/11 09:12:23;;;;;;;0.30;0.20;;;23.80;71.80;;;;;;4862734;29;20176;-62
2024/03/11 09:14:48;;;;;;;0.30;0.30;;;24.10;71.90;;;;;;4862392;29;20404;-62
2024/03/11 09:17:17;;;;;;;0.40;0.40;;;24.60;70.00;;;;;;4862536;29;20555;-63
2024/03/11 09:19:43;;;;;;;0.40;0.40;;;24.90;69.70;;;;;;4862627;29;20508;-61
2024/03/11 09:22:09;;;;;;;0.47;0.47;;;25.10;67.70;;;;;;4862571;29;20435;-64
2024/03/11 09:24:34;;;;;;;0.30;0.20;;;24.90;67.60;;;;;;4862065;29;20769;-61
2024/03/11 09:27:02;;;;;;;0.30;0.30;;;25.00;68.70;;;;;;4862154;29;20596;-63
2024/03/11 09:29:29;;;;;;;0.30;0.30;;;25.00;67.40;;;;;;4862321;29;20187;-61
2024/03/11 09:31:55;;;;;;;0.40;0.40;;;25.10;67.80;;;;;;4862141;29;20423;-65
2024/03/11 09:34:20;;;;;;;0.30;0.27;;;24.80;66.20;;;;;;4861911;29;20851;-64
2024/03/11 09:36:46;;;;;;;0.63;0.63;;;24.40;67.50;;;;;;4861960;29;20208;-64
2024/03/11 09:39:12;;;;;;;0.30;0.30;;;24.30;67.80;;;;;;4862114;29;20351;-63
2024/03/11 09:41:48;;;;;;;0.30;0.30;;;24.40;67.80;;;;;;4861873;29;20220;-63
2024/03/11 09:44:20;;;;;;;0.30;0.30;;;24.50;67.10;;;;;;4861842;29;20187;-63
2024/03/11 09:46:50;;;;;;;0.30;0.30;;;24.60;67.20;;;;;;4861658;29;20408;-62
2024/03/11 09:49:16;;;;;;;0.30;0.30;;;24.60;68.00;;;;;;4862190;29;20384;-62
2024/03/11 09:51:46;;;;;;;0.70;0.70;;;24.80;65.90;;;;;;4861920;29;20398;-63
2024/03/11 09:54:17;;;;;;;0.30;0.30;;;24.90;66.90;;;;;;4861899;29;20177;-63
2024/03/11 09:56:47;;;;;;;0.30;0.20;;;25.40;66.10;;;;;;4860347;29;20503;-65
2024/03/11 09:59:18;;;;;;;0.30;0.30;;;25.60;65.40;;;;;;4860730;29;20429;-64
2024/03/11 10:01:52;;;;;;;1.03;0.80;;;25.90;64.20;;;;;;4861831;29;20471;-64
2024/03/11 10:04:20;;;;;;;0.30;0.30;;;26.00;63.10;;;;;;4861508;29;20388;-65
2024/03/11 10:07:08;;;;;;;0.30;0.30;;;25.60;64.00;;;;;;4859926;29;20504;-64
2024/03/11 10:09:44;;;;;;;0.30;0.30;;;25.30;64.00;;;;;;4861451;29;20503;-60
2024/03/11 10:12:11;;;;;;;0.30;0.30;;;25.00;64.80;;;;;;4861660;29;20475;-64
2024/03/11 10:14:39;;;;;;;0.30;0.30;;;25.10;65.40;;;;;;4860994;29;20449;-63
2024/03/11 10:17:34;;;;;;;0.30;0.30;;;25.30;65.00;;;;;;4861377;29;20503;-59
2024/03/11 10:19:59;;;;;;;0.30;0.30;;;25.30;63.40;;;;;;4861343;29;20928;-64
2024/03/11 10:22:31;;;;;;;0.30;0.30;;;24.90;64.50;;;;;;4861797;29;20456;-63
2024/03/11 10:24:58;;;;;;;0.30;0.20;;;24.40;64.90;;;;;;4860909;29;20236;-64
2024/03/11 10:27:32;;;;;;;0.30;0.20;;;23.50;64.50;;;;;;4861105;29;20514;-64
2024/03/11 10:30:20;;;;;;;0.30;0.30;;;23.50;66.50;;;;;;4861338;29;20384;-62
2024/03/11 10:32:52;;;;;;;0.30;0.30;;;24.00;65.90;;;;;;4861276;29;20406;-63
2024/03/11 10:35:20;;;;;;;0.30;0.30;;;24.20;62.90;;;;;;4860680;29;20484;-64
2024/03/11 10:37:47;;;;;;;0.30;0.20;;;23.60;63.10;;;;;;4861026;29;20486;-64
2024/03/11 10:40:18;;;;;;;0.30;0.20;;;22.80;64.90;;;;;;4861010;29;20423;-63
2024/03/11 10:42:53;;;;;;;0.30;0.30;;;22.00;66.40;;;;;;4861148;29;20430;-65
2024/03/11 10:45:33;;;;;;;0.30;0.20;;;21.00;67.90;;;;;;4860762;29;20417;-64
2024/03/11 10:48:02;;;;;;;0.30;0.30;;;20.00;69.50;;;;;;4860861;29;20464;-63
2024/03/11 10:50:34;;;;;;;0.30;0.20;;;18.90;73.20;;;;;;4859726;29;20517;-65
2024/03/11 10:53:03;;;;;;;0.30;0.30;;;18.00;76.00;;;;;;4860798;29;20503;-61
2024/03/11 10:55:32;;;;;;;0.30;0.30;;;17.60;78.40;;;;;;4860164;29;20441;-63
2024/03/11 10:58:04;;;;;;;0.33;0.33;;;17.40;78.70;;;;;;4860837;29;20441;-62
2024/03/11 11:00:35;;;;;;;0.30;0.30;;;17.20;78.90;;;;;;4860809;29;20417;-62
2024/03/11 11:03:12;;;;;;;0.30;0.20;;;17.30;80.10;;;;;;4860925;29;20504;-61
2024/03/11 11:05:51;;;;;;;0.30;0.27;;;17.50;79.00;;;;;;4860377;29;20447;-61
2024/03/11 11:08:17;;;;;;;0.30;0.27;;;17.50;78.00;;;;;;4860743;29;20465;-62
2024/03/11 11:10:45;;;;;;;0.30;0.20;;;17.30;78.50;;;;;;4860970;29;20901;-63
2024/03/11 11:13:15;;;;;;;0.30;0.20;;;17.00;78.20;;;;;;4860818;29;20447;-61
2024/03/11 11:15:41;;;;;;;0.30;0.30;;;16.70;79.20;;;;;;4860392;29;20793;-61
2024/03/11 11:18:13;;;;;;;0.30;0.30;;;16.40;80.70;;;;;;4860877;29;20422;-61
2024/03/11 11:20:42;;;;;;;0.30;0.30;;;16.20;81.90;;;;;;4861119;29;20445;-62
2024/03/11 11:23:10;;;;;;;0.30;0.30;;;15.90;81.30;;;;;;4860722;29;20776;-61
2024/03/11 11:25:40;;;;;;;0.30;0.20;;;15.80;81.10;;;;;;4860347;29;20433;-61
2024/03/11 11:28:25;;;;;;;0.30;0.30;;;15.50;81.70;;;;;;4860681;29;20457;-62
2024/03/11 11:31:12;;;;;;;0.30;0.30;;;15.50;83.30;;;;;;4860546;29;20439;-62
2024/03/11 11:34:19;;;;;;;0.30;0.30;;;15.50;83.60;;;;;;4860711;29;20463;-64
2024/03/11 11:36:57;;;;;;;0.30;0.30;;;15.70;85.30;;;;;;4821754;29;20511;-60
2024/03/11 11:39:27;;;;;;;0.30;0.20;;;16.00;81.20;;;;;;4821726;29;20423;-60
2024/03/11 11:41:54;;;;;;;0.30;0.30;;;16.00;81.40;;;;;;4821985;29;20409;-60
2024/03/11 11:44:28;;;;;;;0.30;0.30;;;16.10;82.60;;;;;;4821708;29;20423;-61
2024/03/11 11:47:05;;;;;;;0.30;0.30;;;16.20;80.60;;;;;;4806368;29;20454;-60
2024/03/11 11:49:40;;;;;;;0.30;0.30;;;16.30;81.30;;;;;;4821687;29;20450;-61
2024/03/11 11:52:10;;;;;;;0.30;0.20;;;16.40;80.40;;;;;;4821682;29;20423;-61
2024/03/11 11:54:36;;;;;;;0.30;0.20;;;16.40;82.60;;;;;;4821057;29;20455;-61
2024/03/11 11:57:16;;;;;;;0.30;0.30;;;16.50;82.30;;;;;;4806145;29;20469;-61
2024/03/11 11:59:56;;;;;;;0.30;0.30;;;16.50;79.90;;;;;;4821782;29;20438;-61
2024/03/11 12:02:25;;;;;;;0.30;0.20;;;16.40;80.20;;;;;;4821882;29;20437;-61
2024/03/11 12:05:00;;;;;;;0.30;0.30;;;16.40;79.20;;;;;;4821329;29;20398;-60
2024/03/11 12:07:25;;;;;;;0.30;0.30;;;16.30;79.70;;;;;;4841275;29;20843;-60
2024/03/11 12:09:59;;;;;;;0.30;0.30;;;16.20;79.90;;;;;;4863762;29;20409;-60
2024/03/11 12:12:30;;;;;;;0.30;0.30;;;16.10;82.20;;;;;;4863724;29;20177;-61
2024/03/11 12:14:59;;;;;;;0.30;0.20;;;16.10;81.80;;;;;;4863459;29;20734;-60
2024/03/11 12:17:30;;;;;;;0.30;0.30;;;16.10;82.30;;;;;;4863502;29;20433;-60
2024/03/11 12:20:25;;;;;;;0.30;0.30;;;16.10;81.50;;;;;;4863465;29;20383;-61
2024/03/11 12:22:52;;;;;;;0.30;0.30;;;16.00;81.00;;;;;;4863500;29;20401;-60
2024/03/11 12:25:18;;;;;;;0.30;0.30;;;15.90;82.90;;;;;;4863144;29;20438;-60
2024/03/11 12:27:45;;;;;;;0.30;0.20;;;15.90;82.60;;;;;;4861893;29;20525;-60
2024/03/11 12:30:19;;;;;;;0.30;0.20;;;16.10;83.20;;;;;;4863199;29;20747;-60
2024/03/11 12:32:57;;;;;;;0.30;0.30;;;16.10;83.00;;;;;;4863333;29;20879;-62
2024/03/11 12:35:27;;;;;;;0.30;0.30;;;16.20;84.10;;;;;;4862828;29;20405;-62
2024/03/11 12:37:59;;;;;;;0.30;0.30;;;16.20;83.50;;;;;;4863246;29;20424;-61
2024/03/11 12:40:29;;;;;;;0.30;0.30;;;16.20;84.00;;;;;;4862934;29;20463;-60
2024/03/11 12:42:58;;;;;;;0.30;0.30;;;16.20;83.70;;;;;;4862909;29;20512;-60
2024/03/11 12:45:45;;;;;;;0.30;0.30;;;16.30;82.70;;;;;;4862515;29;20435;-61
2024/03/11 12:48:13;;;;;;;0.30;0.20;;;16.30;81.30;;;;;;4863185;29;20465;-61
2024/03/11 12:50:42;;;;;;;0.30;0.30;;;16.20;81.20;;;;;;4862968;29;20715;-61
2024/03/11 12:53:20;;;;;;;0.30;0.30;;;16.00;84.10;;;;;;4861699;29;20919;-60
2024/03/11 12:55:45;;;;;;;0.30;0.30;;;15.90;87.20;;;;;;4862099;29;20773;-61
2024/03/11 12:58:18;;;;;;;0.40;0.40;;;15.70;87.10;;;;;;4869856;29;20436;-61
2024/03/11 13:00:47;;;;;;;0.30;0.30;;;15.60;86.80;;;;;;4869799;29;20207;-60
2024/03/11 13:03:18;;;;;;;0.30;0.30;;;15.50;85.80;;;;;;4864790;29;20899;-60
2024/03/11 13:05:59;;;;;;;0.30;0.30;;;15.40;85.80;;;;;;4862339;29;20488;-61
2024/03/11 13:08:26;;;;;;;0.30;0.30;;;15.30;86.20;;;;;;4879080;29;20451;-61
2024/03/11 13:11:08;;;;;;;0.33;0.33;;;15.30;86.80;;;;;;4880789;29;20694;-62
2024/03/11 13:13:42;;;;;;;0.30;0.30;;;15.30;88.00;;;;;;4879974;29;20424;-60
2024/03/11 13:16:09;;;;;;;0.30;0.30;;;15.40;87.10;;;;;;4880555;29;20924;-60
2024/03/11 13:18:39;;;;;;;0.30;0.30;;;15.40;87.20;;;;;;4879564;29;20420;-61
2024/03/11 13:21:07;;;;;;;0.40;0.40;;;15.40;87.00;;;;;;4880535;29;20480;-60
2024/03/11 13:23:33;;;;;;;0.30;0.30;;;15.50;86.40;;;;;;4880742;29;20437;-60
2024/03/11 13:26:00;;;;;;;0.30;0.30;;;15.60;87.00;;;;;;4880429;29;20487;-60
2024/03/11 13:28:28;;;;;;;0.30;0.30;;;15.80;88.00;;;;;;4880822;29;20463;-61
2024/03/11 13:30:55;;;;;;;0.53;0.53;;;16.10;87.20;;;;;;4881008;29;20411;-59
2024/03/11 13:33:21;;;;;;;0.30;0.30;;;16.20;85.50;;;;;;4880859;29;20778;-61
2024/03/11 13:35:47;;;;;;;0.30;0.30;;;16.10;82.90;;;;;;4878967;29;20447;-61
2024/03/11 13:38:12;;;;;;;0.30;0.30;;;15.90;82.20;;;;;;4880928;29;20427;-60
2024/03/11 13:40:38;;;;;;;0.30;0.30;;;15.80;82.70;;;;;;4880424;29;20190;-60
2024/03/11 13:43:11;;;;;;;0.30;0.30;;;15.60;82.50;;;;;;4880545;29;20491;-60
2024/03/11 13:45:42;;;;;;;0.30;0.30;;;15.60;83.70;;;;;;4878768;29;20950;-60
2024/03/11 13:48:08;;;;;;;0.30;0.30;;;15.40;83.00;;;;;;4880584;29;20455;-61
2024/03/11 13:50:38;;;;;;;0.33;0.33;;;15.30;85.40;;;;;;4880566;29;20508;-60
2024/03/11 13:53:04;;;;;;;0.30;0.30;;;15.30;84.90;;;;;;4880380;29;20433;-60
2024/03/11 13:55:30;;;;;;;0.30;0.20;;;15.30;86.10;;;;;;4879166;29;20430;-62
2024/03/11 13:57:56;;;;;;;0.30;0.30;;;15.20;84.80;;;;;;4878428;29;20433;-62
2024/03/11 14:00:21;;;;;;;0.30;0.30;;;15.20;84.40;;;;;;4878330;29;20186;-63
2024/03/11 14:02:51;;;;;;;0.30;0.30;;;15.10;84.70;;;;;;4878682;29;20186;-61
2024/03/11 14:05:19;;;;;;;0.30;0.30;;;15.20;84.90;;;;;;4878475;29;20205;-61
2024/03/11 14:07:46;;;;;;;0.30;0.30;;;15.30;85.20;;;;;;4878606;29;20482;-61
2024/03/11 14:10:13;;;;;;;0.30;0.30;;;15.50;84.30;;;;;;4878843;29;20417;-60
2024/03/11 14:12:40;;;;;;;0.30;0.30;;;15.60;82.80;;;;;;4880346;29;20446;-60
2024/03/11 14:15:13;;;;;;;0.30;0.20;;;15.60;82.80;;;;;;4880090;29;20427;-60
2024/03/11 14:17:47;;;;;;;0.30;0.30;;;15.60;83.50;;;;;;4879123;29;20774;-60
2024/03/11 14:20:20;;;;;;;0.30;0.30;;;15.50;83.00;;;;;;4880471;29;20429;-60
2024/03/11 14:22:47;;;;;;;0.63;0.63;;;15.40;83.70;;;;;;4880089;29;20932;-60
2024/03/11 14:25:15;;;;;;;0.30;0.30;;;15.30;84.00;;;;;;4879650;29;20426;-63
2024/03/11 14:27:44;;;;;;;0.30;0.30;;;15.10;83.90;;;;;;4878764;29;20461;-60
2024/03/11 14:30:14;;;;;;;0.30;0.20;;;14.90;84.20;;;;;;4879830;29;20422;-61
2024/03/11 14:32:46;;;;;;;0.30;0.30;;;14.80;85.30;;;;;;4880301;29;20904;-60
2024/03/11 14:35:15;;;;;;;0.30;0.30;;;14.50;85.00;;;;;;4880238;29;20498;-60
2024/03/11 14:37:45;;;;;;;0.30;0.20;;;14.40;85.00;;;;;;4878739;29;20435;-60
2024/03/11 14:40:29;;;;;;;0.30;0.30;;;14.40;86.00;;;;;;4881239;29;20432;-61
2024/03/11 14:42:59;;;;;;;0.40;0.40;;;14.30;86.60;;;;;;4881051;29;20928;-62
2024/03/11 14:45:33;;;;;;;0.30;0.30;;;14.30;87.40;;;;;;4880415;29;20436;-59
2024/03/11 14:48:01;;;;;;;0.30;0.30;;;14.40;87.00;;;;;;4881104;29;20837;-62
2024/03/11 14:50:30;;;;;;;0.30;0.30;;;14.40;86.30;;;;;;4882109;29;20743;-61
2024/03/11 14:52:56;;;;;;;0.30;0.30;;;14.40;86.30;;;;;;4883947;29;20410;-60
2024/03/11 14:55:32;;;;;;;0.30;0.30;;;14.40;86.20;;;;;;4883769;29;20415;-61
2024/03/11 14:57:58;;;;;;;0.30;0.30;;;14.40;87.00;;;;;;4882060;29;20426;-61
2024/03/11 15:00:26;;;;;;;0.37;0.37;;;14.40;87.50;;;;;;4878843;29;20417;-61
2024/03/11 15:02:52;;;;;;;0.30;0.30;;;14.40;86.90;;;;;;4879902;29;20404;-61
2024/03/11 15:05:24;;;;;;;0.30;0.30;;;14.40;86.70;;;;;;4879603;29;20424;-61
2024/03/11 15:07:57;;;;;;;0.30;0.30;;;14.30;86.10;;;;;;4879376;29;21008;-61
2024/03/11 15:10:32;;;;;;;0.30;0.30;;;14.30;86.80;;;;;;4879845;29;20450;-60
2024/03/11 15:13:00;;;;;;;0.30;0.30;;;14.30;87.40;;;;;;4883260;29;20435;-61
2024/03/11 15:15:29;;;;;;;0.40;0.40;;;14.30;87.40;;;;;;4879296;29;20959;-61
2024/03/11 15:18:00;;;;;;;0.30;0.30;;;14.20;87.10;;;;;;4881389;29;20497;-61
2024/03/11 15:20:26;;;;;;;0.30;0.20;;;14.20;86.80;;;;;;4880566;29;20420;-61
2024/03/11 15:22:52;;;;;;;0.30;0.30;;;14.30;87.40;;;;;;4879867;29;20825;-61
2024/03/11 15:25:24;;;;;;;0.30;0.30;;;14.30;87.30;;;;;;4879112;29;20448;-61
2024/03/11 15:27:53;;;;;;;0.37;0.37;;;14.30;87.40;;;;;;4879120;29;20461;-61
2024/03/11 15:30:20;;;;;;;0.30;0.30;;;14.30;87.80;;;;;;4879210;29;20420;-61
2024/03/11 15:32:47;;;;;;;0.30;0.30;;;14.40;87.60;;;;;;4879067;29;20417;-61
2024/03/11 15:35:14;;;;;;;0.30;0.30;;;14.40;87.40;;;;;;4878829;29;20409;-61
2024/03/11 15:37:40;;;;;;;0.30;0.30;;;14.50;86.80;;;;;;4879244;29;20475;-61
2024/03/11 15:40:06;;;;;;;0.30;0.30;;;14.50;87.10;;;;;;4879064;29;20417;-60
2024/03/11 15:42:34;;;;;;;0.30;0.30;;;14.60;87.20;;;;;;4880251;29;20262;-61
2024/03/11 15:45:00;;;;;;;0.30;0.30;;;14.60;85.50;;;;;;4882326;29;20420;-61
2024/03/11 15:47:26;;;;;;;0.30;0.30;;;14.70;85.50;;;;;;4881264;29;20990;-61
2024/03/11 15:49:52;;;;;;;0.30;0.30;;;14.70;85.00;;;;;;4882638;29;20411;-61
2024/03/11 15:52:20;;;;;;;0.30;0.30;;;14.70;85.30;;;;;;4882396;29;20904;-60
2024/03/11 15:54:47;;;;;;;0.30;0.30;;;14.70;85.20;;;;;;4882424;29;20428;-61
2024/03/11 15:57:13;;;;;;;0.30;0.30;;;14.70;87.10;;;;;;4882530;29;20487;-60
2024/03/11 15:59:39;;;;;;;0.30;0.30;;;14.60;88.30;;;;;;4882333;29;20425;-61
2024/03/11 16:02:05;;;;;;;0.30;0.20;;;14.60;88.50;;;;;;4882312;29;20371;-60
2024/03/11 16:04:32;;;;;;;0.30;0.30;;;14.50;89.60;;;;;;4882257;29;20205;-61
2024/03/11 16:06:58;;;;;;;0.30;0.30;;;14.50;90.00;;;;;;4882001;29;20451;-61
2024/03/11 16:12:09;;;;;;;0.30;0.30;;;14.30;90.50;;;;;;4882319;29;20182;-60
2024/03/11 16:14:34;;;;;;;0.57;0.57;;;14.20;90.80;;;;;;4880711;29;20439;-61
2024/03/11 16:17:00;;;;;;;0.30;0.20;;;14.10;90.90;;;;;;4881923;29;20424;-60
2024/03/11 16:19:26;;;;;;;0.30;0.30;;;14.00;90.90;;;;;;4882162;29;20244;-61
2024/03/11 16:21:52;;;;;;;0.30;0.30;;;14.00;90.90;;;;;;4882009;29;20191;-61
2024/03/11 16:24:18;;;;;;;0.30;0.30;;;13.90;90.90;;;;;;4881914;29;20252;-63
2024/03/11 16:26:44;;;;;;;0.30;0.30;;;13.90;91.00;;;;;;4881970;29;20512;-61
2024/03/11 16:29:10;;;;;;;0.33;0.33;;;13.80;91.50;;;;;;4881829;29;20476;-60
2024/03/11 16:31:36;;;;;;;0.40;0.40;;;13.80;91.20;;;;;;4880376;29;20179;-60
2024/03/11 16:34:02;;;;;;;0.30;0.30;;;13.70;91.10;;;;;;4881926;29;20504;-60
2024/03/11 16:36:27;;;;;;;0.30;0.30;;;13.60;91.10;;;;;;4881390;29;20545;-60
2024/03/11 16:38:54;;;;;;;0.30;0.30;;;13.50;91.20;;;;;;4880651;29;20179;-60
2024/03/11 16:41:22;;;;;;;0.30;0.30;;;13.50;91.30;;;;;;4881912;29;20534;-61
2024/03/11 16:43:49;;;;;;;0.30;0.20;;;13.50;91.50;;;;;;4881645;29;20425;-61
2024/03/11 16:46:16;;;;;;;0.30;0.30;;;13.50;91.50;;;;;;4881272;29;20429;-61
2024/03/11 16:48:45;;;;;;;0.30;0.30;;;13.50;91.40;;;;;;4881892;29;20474;-60
2024/03/11 16:51:11;;;;;;;0.30;0.30;;;13.50;91.80;;;;;;4881591;29;20779;-61
2024/03/11 16:53:38;;;;;;;0.30;0.30;;;13.40;92.40;;;;;;4880952;29;20408;-61
2024/03/11 16:56:04;;;;;;;0.30;0.30;;;13.30;93.20;;;;;;4880697;29;20202;-60
2024/03/11 16:58:30;;;;;;;0.30;0.30;;;13.10;93.70;;;;;;4881307;29;20440;-61
2024/03/11 17:00:56;;;;;;;0.30;0.30;;;13.00;94.10;;;;;;4881250;29;20779;-61
2024/03/11 17:03:23;;;;;;;0.40;0.40;;;12.90;94.60;;;;;;4881308;29;20485;-60
2024/03/11 17:05:49;;;;;;;0.30;0.30;;;12.80;94.90;;;;;;4881053;29;20251;-60
2024/03/11 17:08:16;;;;;;;0.30;0.30;;;12.70;95.30;;;;;;4880092;29;20470;-61
2024/03/11 17:10:41;;;;;;;0.30;0.30;;;12.60;95.60;;;;;;4881054;29;20415;-61
2024/03/11 17:13:10;;;;;;;0.90;0.90;;;12.40;95.40;;;;;;4880924;29;20805;-63
2024/03/11 17:15:37;;;;;;;0.43;0.43;;;12.40;95.40;;;;;;4880957;29;20243;-60
2024/03/11 17:18:06;;;;;;;0.30;0.30;;;12.30;96.00;;;;;;4881163;29;20422;-60
2024/03/11 17:20:35;;;;;;;0.30;0.30;;;12.30;95.80;;;;;;4882522;29;20502;-61
2024/03/11 17:23:05;;;;;;;0.30;0.30;;;12.30;95.60;;;;;;4882240;29;20418;-62
2024/03/11 17:25:38;;;;;;;0.40;0.40;;;12.20;95.40;;;;;;4882094;29;20934;-61
2024/03/11 17:28:12;;;;;;;0.40;0.40;;;12.10;95.50;;;;;;4881016;29;20463;-62
2024/03/11 17:30:42;;;;;;;0.30;0.30;;;12.00;95.90;;;;;;4882481;29;20422;-61
2024/03/11 17:33:09;;;;;;;0.30;0.30;;;11.90;96.00;;;;;;4882137;29;20434;-62
2024/03/11 17:35:35;;;;;;;0.30;0.30;;;11.80;96.20;;;;;;4881474;29;20443;-60
2024/03/11 17:38:03;;;;;;;0.30;0.30;;;11.70;96.20;;;;;;4881976;29;20419;-59
2024/03/11 17:40:29;;;;;;;0.30;0.30;;;11.60;96.20;;;;;;4881791;29;20426;-61
2024/03/11 17:42:55;;;;;;;0.40;0.40;;;11.50;96.10;;;;;;4881306;29;20518;-62
2024/03/11 17:45:22;;;;;;;0.30;0.30;;;11.40;96.50;;;;;;4880948;29;20451;-61
2024/03/11 17:47:48;;;;;;;0.30;0.30;;;11.30;96.60;;;;;;4881103;29;20669;-62
2024/03/11 17:50:18;;;;;;;0.30;0.30;;;11.20;96.60;;;;;;4881155;29;20942;-60
2024/03/11 17:52:48;;;;;;;0.40;0.40;;;11.10;96.50;;;;;;4880977;29;20391;-60
2024/03/11 17:55:20;;;;;;;0.30;0.30;;;10.90;96.50;;;;;;4880732;29;20421;-61
2024/03/11 17:57:53;;;;;;;0.30;0.30;;;10.80;96.80;;;;;;4880949;29;20432;-60
2024/03/11 18:00:25;;;;;;;0.30;0.30;;;10.80;97.10;;;;;;4880863;29;20454;-61
2024/03/11 18:02:55;;;;;;;0.30;0.30;;;10.70;97.70;;;;;;4880806;29;20462;-60
2024/03/11 18:05:29;;;;;;;0.30;0.30;;;10.50;98.40;;;;;;4879159;29;20238;-60